Time;durP1;ratioP1;P1;durP2;ratioP2;P2;SDS_P1;SDS_P2;PMS_P1;PMS_P2;Temp;Humidity;BMP_temperature;BMP_pressure;BME280_temperature;BME280_humidity;BME280_pressure;Samples;Min_cycle;Max_cycle;Signal;HPM_P1;HPM_P2
2023/09/01 00:00:15;;;;;;;14.95;5.05;;;11.70;99.90;;;;;;4992545;28;20145;-73
2023/09/01 00:02:41;;;;;;;15.68;5.22;;;11.70;99.90;;;;;;4977490;28;20089;-74
2023/09/01 00:05:07;;;;;;;12.63;4.78;;;11.70;99.90;;;;;;4995227;28;20443;-74
2023/09/01 00:07:34;;;;;;;12.07;5.28;;;11.70;99.90;;;;;;4994612;28;20133;-74
2023/09/01 00:10:00;;;;;;;11.20;4.85;;;11.70;99.90;;;;;;4992866;28;20502;-73
2023/09/01 00:12:26;;;;;;;12.52;4.50;;;11.70;99.90;;;;;;4994449;28;20394;-73
2023/09/01 00:14:52;;;;;;;12.55;4.68;;;11.70;99.90;;;;;;4994263;28;20470;-74
2023/09/01 00:17:18;;;;;;;14.38;5.22;;;11.70;99.90;;;;;;4993232;28;20530;-73
2023/09/01 00:19:44;;;;;;;14.30;4.75;;;11.70;99.90;;;;;;4993540;28;20054;-75
2023/09/01 00:22:10;;;;;;;11.37;4.97;;;11.70;99.90;;;;;;4994041;28;20127;-73
2023/09/01 00:24:37;;;;;;;12.23;4.85;;;11.70;99.90;;;;;;4994667;28;20471;-73
2023/09/01 00:27:03;;;;;;;12.10;4.80;;;11.70;99.90;;;;;;4992922;28;20046;-74
2023/09/01 00:29:33;;;;;;;10.80;5.30;;;11.70;99.90;;;;;;4993771;28;20038;-74
2023/09/01 00:31:59;;;;;;;15.45;5.53;;;11.80;99.90;;;;;;4993035;28;20053;-74
2023/09/01 00:34:25;;;;;;;14.10;5.25;;;11.70;99.90;;;;;;4994219;28;20046;-73
2023/09/01 00:36:51;;;;;;;14.88;5.35;;;11.70;99.90;;;;;;4977290;28;20380;-73
2023/09/01 00:39:17;;;;;;;14.50;5.47;;;11.70;99.90;;;;;;4995140;28;20100;-73
2023/09/01 00:41:43;;;;;;;15.82;5.38;;;11.70;99.90;;;;;;4996113;28;20050;-73
2023/09/01 00:44:10;;;;;;;10.88;5.03;;;11.60;99.90;;;;;;4997199;28;20474;-73
2023/09/01 00:46:36;;;;;;;13.07;5.15;;;11.60;99.90;;;;;;5002481;28;20061;-74
2023/09/01 00:49:02;;;;;;;14.95;5.28;;;11.60;99.90;;;;;;4997681;28;20042;-75
2023/09/01 00:51:28;;;;;;;13.85;5.10;;;11.60;99.90;;;;;;4994310;28;20058;-74
2023/09/01 00:53:56;;;;;;;13.38;5.78;;;11.60;99.90;;;;;;4993891;28;20394;-74
2023/09/01 00:56:21;;;;;;;14.35;5.85;;;11.60;99.90;;;;;;4993630;28;20058;-74
2023/09/01 00:58:47;;;;;;;16.02;6.30;;;11.50;99.90;;;;;;4994255;28;20181;-74
2023/09/01 01:01:13;;;;;;;12.48;6.15;;;11.50;99.90;;;;;;4993900;28;20050;-74
2023/09/01 01:03:40;;;;;;;13.80;6.47;;;11.50;99.90;;;;;;4994024;28;20050;-75
2023/09/01 01:06:35;;;;;;;15.02;6.88;;;11.50;99.90;;;;;;4992501;28;20509;-74
2023/09/01 01:09:26;;;;;;;16.13;7.05;;;11.50;99.90;;;;;;4993936;28;20050;-73
2023/09/01 01:12:06;;;;;;;16.80;7.57;;;11.40;99.90;;;;;;4996008;28;20482;-73
2023/09/01 01:14:47;;;;;;;17.80;7.70;;;11.40;99.90;;;;;;4981248;28;20058;-74
2023/09/01 01:17:18;;;;;;;19.92;7.35;;;11.40;99.90;;;;;;4997328;28;20086;-73
2023/09/01 01:19:51;;;;;;;15.48;6.47;;;11.40;99.90;;;;;;4980253;28;20543;-74
2023/09/01 01:22:38;;;;;;;18.15;7.15;;;11.40;99.90;;;;;;4996879;28;20126;-73
2023/09/01 01:25:11;;;;;;;17.77;7.28;;;11.40;99.90;;;;;;4996282;28;20054;-73
2023/09/01 01:27:42;;;;;;;20.80;7.22;;;11.40;99.90;;;;;;4980924;28;20062;-74
2023/09/01 01:30:09;;;;;;;20.42;6.63;;;11.40;99.90;;;;;;4997297;28;20470;-75
2023/09/01 01:32:36;;;;;;;17.02;6.60;;;11.50;99.90;;;;;;4995953;28;20108;-74
2023/09/01 01:35:08;;;;;;;19.30;6.68;;;11.50;99.90;;;;;;4996165;28;20482;-74
2023/09/01 01:37:59;;;;;;;20.42;7.72;;;11.60;99.90;;;;;;4995978;28;20050;-74
2023/09/01 01:40:29;;;;;;;14.85;7.03;;;11.70;99.90;;;;;;4996756;28;20119;-73
2023/09/01 01:42:59;;;;;;;17.77;7.45;;;11.70;99.90;;;;;;4979521;28;20046;-73
2023/09/01 01:45:26;;;;;;;18.35;6.70;;;11.70;99.90;;;;;;4995662;28;20050;-73
2023/09/01 01:47:52;;;;;;;;;;;11.70;99.90;;;;;;4979729;28;20049;-73
2023/09/01 01:50:18;;;;;;;19.08;7.20;;;11.70;99.90;;;;;;4995360;28;19922;-73
2023/09/01 01:52:44;;;;;;;14.07;6.65;;;11.70;99.90;;;;;;4995689;28;20097;-73
2023/09/01 01:55:10;;;;;;;17.80;7.30;;;11.70;99.90;;;;;;4978916;28;20062;-74
2023/09/01 01:57:38;;;;;;;16.70;6.77;;;11.70;99.90;;;;;;4997080;28;20081;-73
2023/09/01 02:00:11;;;;;;;18.60;7.50;;;11.70;99.90;;;;;;4996545;28;20053;-74
2023/09/01 02:02:40;;;;;;;22.08;7.28;;;11.60;99.90;;;;;;4997169;28;20090;-74
2023/09/01 02:05:06;;;;;;;16.30;6.80;;;11.60;99.90;;;;;;4979832;28;20092;-74
2023/09/01 02:07:35;;;;;;;14.70;6.40;;;11.60;99.90;;;;;;4995790;28;20192;-74
2023/09/01 02:10:05;;;;;;;14.57;6.65;;;11.60;99.90;;;;;;4996565;28;20042;-73
2023/09/01 02:12:33;;;;;;;19.63;6.78;;;11.60;99.90;;;;;;4995153;28;20097;-72
2023/09/01 02:15:00;;;;;;;14.57;6.57;;;11.50;99.90;;;;;;4995581;28;20105;-74
2023/09/01 02:17:26;;;;;;;16.35;7.32;;;11.50;99.90;;;;;;4995756;28;20042;-74
2023/09/01 02:19:51;;;;;;;14.38;6.85;;;11.50;99.90;;;;;;4995230;28;20053;-74
2023/09/01 02:22:17;;;;;;;17.25;6.68;;;11.40;99.90;;;;;;4977952;28;20046;-74
2023/09/01 02:24:43;;;;;;;19.65;7.65;;;11.50;99.90;;;;;;4996324;28;20410;-75
2023/09/01 02:27:09;;;;;;;21.58;7.35;;;11.40;99.90;;;;;;4995377;28;20513;-74
2023/09/01 02:29:35;;;;;;;14.68;7.03;;;11.40;99.90;;;;;;4978445;28;20108;-74
2023/09/01 02:32:00;;;;;;;19.30;7.28;;;11.40;99.90;;;;;;4996178;28;20129;-74
2023/09/01 02:34:26;;;;;;;14.00;6.72;;;11.50;99.90;;;;;;4995997;28;20130;-73
2023/09/01 02:36:52;;;;;;;17.17;7.38;;;11.40;99.90;;;;;;4995386;28;20050;-74
2023/09/01 02:39:18;;;;;;;18.00;7.13;;;11.50;99.90;;;;;;4996048;28;20112;-74
2023/09/01 02:41:44;;;;;;;17.83;7.63;;;11.40;99.90;;;;;;4994746;28;20077;-74
2023/09/01 02:44:10;;;;;;;15.00;7.32;;;11.40;99.90;;;;;;4995877;28;20100;-74
2023/09/01 02:46:36;;;;;;;16.48;7.25;;;11.40;99.90;;;;;;4995889;28;20195;-74
2023/09/01 02:49:02;;;;;;;18.52;7.72;;;11.40;99.90;;;;;;4995663;28;20497;-74
2023/09/01 02:51:27;;;;;;;16.52;7.00;;;11.40;99.90;;;;;;4994445;28;20128;-73
2023/09/01 02:53:53;;;;;;;21.27;7.15;;;11.40;99.90;;;;;;4994721;28;20046;-74
2023/09/01 02:56:19;;;;;;;23.95;8.20;;;11.40;99.90;;;;;;4994029;28;20058;-74
2023/09/01 02:58:45;;;;;;;21.60;8.88;;;11.30;99.90;;;;;;4978299;28;20137;-74
2023/09/01 03:01:11;;;;;;;25.63;8.63;;;11.30;99.90;;;;;;4978015;28;20140;-74
2023/09/01 03:03:40;;;;;;;15.10;7.47;;;11.30;99.90;;;;;;4994126;28;20050;-73
2023/09/01 03:06:08;;;;;;;19.13;8.35;;;11.20;99.90;;;;;;4995743;28;20371;-74
2023/09/01 03:08:37;;;;;;;25.30;8.50;;;11.20;99.90;;;;;;4994534;28;20100;-74
2023/09/01 03:11:04;;;;;;;23.35;8.68;;;11.20;99.90;;;;;;4998053;28;20077;-74
2023/09/01 03:13:31;;;;;;;20.45;8.35;;;11.20;99.90;;;;;;4982216;28;20081;-73
2023/09/01 03:15:57;;;;;;;20.42;8.00;;;11.10;99.90;;;;;;4998852;28;20097;-74
2023/09/01 03:18:23;;;;;;;19.00;8.40;;;11.10;99.90;;;;;;4995146;28;20054;-75
2023/09/01 03:20:55;;;;;;;21.63;9.07;;;11.10;99.90;;;;;;4995465;28;20050;-74
2023/09/01 03:23:24;;;;;;;20.05;8.90;;;11.10;99.90;;;;;;4994975;28;20046;-73
2023/09/01 03:25:55;;;;;;;20.30;8.20;;;11.10;99.90;;;;;;4995712;28;20046;-73
2023/09/01 03:28:21;;;;;;;23.80;8.80;;;11.10;99.90;;;;;;4994093;28;20121;-73
2023/09/01 03:30:46;;;;;;;21.10;8.40;;;11.10;99.90;;;;;;4994961;28;20438;-74
2023/09/01 03:33:12;;;;;;;17.65;8.35;;;11.10;99.90;;;;;;4993886;28;20057;-74
2023/09/01 03:35:38;;;;;;;20.25;7.65;;;11.10;99.90;;;;;;4994689;28;20099;-74
2023/09/01 03:38:04;;;;;;;20.38;7.95;;;11.00;99.90;;;;;;4995585;28;20132;-74
2023/09/01 03:40:29;;;;;;;17.55;8.35;;;11.00;99.90;;;;;;4977639;28;20057;-74
2023/09/01 03:42:55;;;;;;;24.17;8.43;;;11.00;99.90;;;;;;4993659;28;20159;-74
2023/09/01 03:45:21;;;;;;;17.25;7.93;;;11.00;99.90;;;;;;4993665;28;20129;-74
2023/09/01 03:47:46;;;;;;;19.88;8.38;;;10.90;99.90;;;;;;4994797;28;20082;-74
2023/09/01 03:50:12;;;;;;;18.90;7.82;;;10.90;99.90;;;;;;4994694;28;20487;-75
2023/09/01 03:52:38;;;;;;;22.05;8.80;;;10.90;99.90;;;;;;4995330;28;20046;-74
2023/09/01 03:55:04;;;;;;;21.63;8.55;;;10.80;99.90;;;;;;4994529;28;20140;-74
2023/09/01 03:57:30;;;;;;;19.50;8.90;;;10.90;99.90;;;;;;4993031;28;20054;-73
2023/09/01 03:59:55;;;;;;;24.63;8.50;;;10.80;99.90;;;;;;4994683;28;20084;-74
2023/09/01 04:02:21;;;;;;;21.50;8.45;;;10.80;99.90;;;;;;4994556;28;20110;-75
2023/09/01 04:04:47;;;;;;;18.08;8.43;;;10.80;99.90;;;;;;4993490;28;20053;-73
2023/09/01 04:07:13;;;;;;;16.88;8.13;;;10.80;99.90;;;;;;4995415;28;20042;-74
2023/09/01 04:09:39;;;;;;;19.38;8.90;;;10.70;99.90;;;;;;4994785;28;20413;-74
2023/09/01 04:12:05;;;;;;;21.38;8.85;;;10.70;99.90;;;;;;4994324;28;20089;-74
2023/09/01 04:14:31;;;;;;;25.02;8.90;;;10.70;99.90;;;;;;4994730;28;20046;-74
2023/09/01 04:16:57;;;;;;;18.58;8.52;;;10.70;99.90;;;;;;4993267;28;20042;-73
2023/09/01 04:19:23;;;;;;;19.03;9.00;;;10.70;99.90;;;;;;4977588;28;20218;-74
2023/09/01 04:21:49;;;;;;;18.63;8.93;;;10.70;99.90;;;;;;4993927;28;20165;-74
2023/09/01 04:24:14;;;;;;;19.77;8.65;;;10.70;99.90;;;;;;4976980;28;20402;-74
2023/09/01 04:26:40;;;;;;;21.58;9.15;;;10.70;99.90;;;;;;4993051;28;20089;-74
2023/09/01 04:29:06;;;;;;;21.20;9.18;;;10.70;99.90;;;;;;4992938;28;20442;-74
2023/09/01 04:31:32;;;;;;;22.38;9.35;;;10.70;99.90;;;;;;4993043;28;20042;-74
2023/09/01 04:33:58;;;;;;;19.33;9.02;;;10.60;99.90;;;;;;4994704;28;20057;-73
2023/09/01 04:36:24;;;;;;;20.10;9.13;;;10.60;99.90;;;;;;4993046;28;20039;-73
2023/09/01 04:38:50;;;;;;;20.83;9.35;;;10.60;99.90;;;;;;4993142;28;20053;-74
2023/09/01 04:41:16;;;;;;;19.45;9.00;;;10.60;99.90;;;;;;4993119;28;20049;-73
2023/09/01 04:43:42;;;;;;;24.63;10.75;;;10.60;99.90;;;;;;4993795;28;20080;-74
2023/09/01 04:46:08;;;;;;;21.77;9.95;;;10.60;99.90;;;;;;4994220;28;20039;-74
2023/09/01 04:48:37;;;;;;;21.38;9.93;;;10.60;99.90;;;;;;4996521;28;20513;-77
2023/09/01 04:51:03;;;;;;;21.60;9.55;;;10.60;99.90;;;;;;4997936;28;20038;-73
2023/09/01 04:53:29;;;;;;;20.35;8.93;;;10.60;99.90;;;;;;4981094;28;20048;-74
2023/09/01 04:55:55;;;;;;;21.70;10.18;;;10.60;99.90;;;;;;4998293;28;20081;-75
2023/09/01 04:58:21;;;;;;;26.90;9.77;;;10.60;99.90;;;;;;4997235;28;20050;-74
2023/09/01 05:00:57;;;;;;;24.52;9.75;;;10.60;99.90;;;;;;4980533;28;20094;-74
2023/09/01 05:03:23;;;;;;;27.27;10.82;;;10.60;99.90;;;;;;4980675;28;20050;-73
2023/09/01 05:05:49;;;;;;;24.85;11.90;;;10.60;99.90;;;;;;4996622;28;20050;-75
2023/09/01 05:08:16;;;;;;;23.65;11.23;;;10.60;99.90;;;;;;4996193;28;20042;-74
2023/09/01 05:10:42;;;;;;;20.75;10.27;;;10.60;99.90;;;;;;4997010;28;20046;-74
2023/09/01 05:13:08;;;;;;;24.50;10.70;;;10.70;99.90;;;;;;4996646;28;20375;-75
2023/09/01 05:15:35;;;;;;;27.48;11.23;;;10.70;99.90;;;;;;4981009;28;20058;-73
2023/09/01 05:18:00;;;;;;;26.33;11.20;;;10.70;99.90;;;;;;4996853;28;20168;-74
2023/09/01 05:20:26;;;;;;;28.42;11.38;;;10.70;99.90;;;;;;4997622;28;20133;-74
2023/09/01 05:22:53;;;;;;;24.80;11.38;;;10.80;99.90;;;;;;4996162;28;20050;-74
2023/09/01 05:25:18;;;;;;;23.63;11.53;;;10.80;99.90;;;;;;4996632;28;20050;-73
2023/09/01 05:27:44;;;;;;;28.02;11.68;;;10.80;99.90;;;;;;4997439;28;20085;-74
2023/09/01 05:30:12;;;;;;;31.30;12.82;;;10.90;99.90;;;;;;4996174;28;20050;-74
2023/09/01 05:32:38;;;;;;;33.70;13.73;;;11.00;99.90;;;;;;4996446;28;20450;-74
2023/09/01 05:35:05;;;;;;;29.17;12.45;;;11.00;99.90;;;;;;4996411;28;20050;-73
2023/09/01 05:37:31;;;;;;;30.00;13.73;;;11.10;99.90;;;;;;4998657;28;20054;-73
2023/09/01 05:39:57;;;;;;;34.00;14.27;;;11.10;99.90;;;;;;4999918;28;20074;-73
2023/09/01 05:42:23;;;;;;;31.17;13.45;;;11.20;99.90;;;;;;5003150;28;20169;-74
2023/09/01 05:44:48;;;;;;;35.40;15.75;;;11.30;99.90;;;;;;4999594;28;20466;-74
2023/09/01 05:47:14;;;;;;;36.05;14.77;;;11.40;99.90;;;;;;4997187;28;20508;-75
2023/09/01 05:49:40;;;;;;;40.63;15.90;;;11.50;99.90;;;;;;4995807;28;20371;-74
2023/09/01 05:52:06;;;;;;;36.55;15.50;;;11.50;99.90;;;;;;4997550;28;20403;-74
2023/09/01 05:54:31;;;;;;;33.35;16.55;;;11.60;99.90;;;;;;4996249;28;20057;-74
2023/09/01 05:56:57;;;;;;;45.97;17.48;;;11.70;99.90;;;;;;4979062;28;20058;-74
2023/09/01 05:59:23;;;;;;;38.92;17.08;;;11.80;99.90;;;;;;4996716;28;20129;-73
2023/09/01 06:01:48;;;;;;;41.38;18.27;;;12.00;99.90;;;;;;4997201;28;20387;-74
2023/09/01 06:04:14;;;;;;;44.20;18.05;;;12.10;99.90;;;;;;4979580;28;20470;-74
2023/09/01 06:06:40;;;;;;;43.70;17.88;;;12.20;99.90;;;;;;4996537;28;20053;-75
2023/09/01 06:09:09;;;;;;;37.60;17.17;;;12.20;99.90;;;;;;4979953;28;20057;-75
2023/09/01 06:11:37;;;;;;;47.45;18.75;;;12.30;99.90;;;;;;4995394;28;20050;-74
2023/09/01 06:14:03;;;;;;;42.15;17.88;;;12.40;99.90;;;;;;4996533;28;20042;-73
2023/09/01 06:16:29;;;;;;;39.23;17.47;;;12.50;99.90;;;;;;4995414;28;20129;-73
2023/09/01 06:18:57;;;;;;;42.58;18.60;;;12.60;99.90;;;;;;4995341;28;20348;-74
2023/09/01 06:21:23;;;;;;;45.58;19.40;;;12.70;99.90;;;;;;4996173;28;20125;-72
2023/09/01 06:23:48;;;;;;;37.60;17.42;;;12.80;99.90;;;;;;4979624;28;20548;-72
2023/09/01 06:26:17;;;;;;;42.85;18.17;;;12.90;99.90;;;;;;4996195;28;20387;-72
2023/09/01 06:28:44;;;;;;;41.40;18.45;;;13.00;99.90;;;;;;4979458;28;20119;-73
2023/09/01 06:31:10;;;;;;;41.60;18.90;;;13.10;99.90;;;;;;4996211;28;20054;-74
2023/09/01 06:33:43;;;;;;;43.15;19.02;;;13.10;99.90;;;;;;4995979;28;20061;-73
2023/09/01 06:36:13;;;;;;;47.72;19.33;;;13.20;99.90;;;;;;4994820;28;20057;-73
2023/09/01 06:38:39;;;;;;;44.90;19.45;;;13.20;99.90;;;;;;4996135;28;20051;-73
2023/09/01 06:41:05;;;;;;;42.10;18.63;;;13.20;99.90;;;;;;4995603;28;20053;-73
2023/09/01 06:43:30;;;;;;;46.08;19.45;;;13.30;99.90;;;;;;4995712;28;20050;-74
2023/09/01 06:45:57;;;;;;;44.47;19.63;;;13.30;99.90;;;;;;4994195;28;20058;-74
2023/09/01 06:48:23;;;;;;;48.72;19.42;;;13.40;99.90;;;;;;4978816;28;20050;-74
2023/09/01 06:50:49;;;;;;;45.22;19.67;;;13.50;99.90;;;;;;4978247;28;20470;-73
2023/09/01 06:53:14;;;;;;;47.05;21.25;;;13.50;99.90;;;;;;4994360;28;20561;-73
2023/09/01 06:55:40;;;;;;;46.67;21.20;;;13.60;99.90;;;;;;4996087;28;20053;-74
2023/09/01 06:58:07;;;;;;;49.05;20.77;;;13.60;99.90;;;;;;4977573;28;20065;-74
2023/09/01 07:00:32;;;;;;;45.95;20.17;;;13.60;99.90;;;;;;4995801;28;20046;-73
2023/09/01 07:02:58;;;;;;;47.47;19.80;;;13.70;99.90;;;;;;4995181;28;20053;-73
2023/09/01 07:05:24;;;;;;;49.60;19.30;;;13.80;99.90;;;;;;4994097;28;20054;-73
2023/09/01 07:07:52;;;;;;;50.10;20.50;;;13.90;99.90;;;;;;4995250;28;20124;-73
2023/09/01 07:10:18;;;;;;;53.55;21.00;;;14.00;99.90;;;;;;4994631;28;20042;-75
2023/09/01 07:12:44;;;;;;;46.95;19.95;;;14.10;99.90;;;;;;4994536;28;20053;-74
2023/09/01 07:15:10;;;;;;;48.97;19.48;;;14.20;99.90;;;;;;4993890;28;20050;-72
2023/09/01 07:17:36;;;;;;;47.35;20.88;;;14.30;99.90;;;;;;4995009;28;20049;-73
2023/09/01 07:20:03;;;;;;;46.40;20.38;;;14.40;99.90;;;;;;4994846;28;20133;-74
2023/09/01 07:22:29;;;;;;;;;;;14.50;99.90;;;;;;4994076;28;20050;-72
2023/09/01 07:24:55;;;;;;;49.63;19.40;;;14.70;99.90;;;;;;4993920;28;19922;-73
2023/09/01 07:27:20;;;;;;;49.13;19.65;;;14.80;99.90;;;;;;4993893;28;20185;-73
2023/09/01 07:29:48;;;;;;;47.63;18.67;;;14.90;99.90;;;;;;4993694;28;20129;-73
2023/09/01 07:32:15;;;;;;;49.70;20.02;;;14.90;99.90;;;;;;4993973;28;20057;-73
2023/09/01 07:34:41;;;;;;;46.45;20.30;;;15.10;99.90;;;;;;4994704;28;20178;-73
2023/09/01 07:37:07;;;;;;;53.67;21.35;;;15.20;99.90;;;;;;4995132;28;20526;-72
2023/09/01 07:39:34;;;;;;;49.55;20.75;;;15.30;99.90;;;;;;4994875;28;20047;-74
2023/09/01 07:41:59;;;;;;;53.60;20.15;;;15.40;99.90;;;;;;4994577;28;20042;-73
2023/09/01 07:44:25;;;;;;;56.40;20.60;;;15.50;99.90;;;;;;4977581;28;20046;-73
2023/09/01 07:46:51;;;;;;;53.03;21.13;;;15.50;99.90;;;;;;4977530;28;20442;-73
2023/09/01 07:49:17;;;;;;;51.85;18.58;;;15.70;99.90;;;;;;4993129;28;20093;-73
2023/09/01 07:51:44;;;;;;;50.25;19.95;;;15.70;99.90;;;;;;4977066;28;20101;-72
2023/09/01 07:54:09;;;;;;;50.50;19.08;;;15.70;99.90;;;;;;4994587;28;20125;-73
2023/09/01 07:56:35;;;;;;;46.28;20.45;;;15.80;99.90;;;;;;4992889;28;20093;-72
2023/09/01 07:59:03;;;;;;;56.10;20.60;;;15.90;99.90;;;;;;4977504;28;20046;-74
2023/09/01 08:01:29;;;;;;;54.45;21.88;;;16.00;99.90;;;;;;4994716;28;20125;-73
2023/09/01 08:03:59;;;;;;;57.30;20.25;;;15.90;99.90;;;;;;4993581;28;20072;-73
2023/09/01 08:06:31;;;;;;;60.38;21.58;;;15.80;99.90;;;;;;4996763;28;20050;-73
2023/09/01 08:08:57;;;;;;;56.22;22.17;;;15.90;99.90;;;;;;4997131;28;20077;-73
2023/09/01 08:11:23;;;;;;;49.77;20.03;;;15.80;99.90;;;;;;4999460;28;20042;-73
2023/09/01 08:13:49;;;;;;;64.32;20.98;;;15.80;99.90;;;;;;4996908;28;20288;-73
2023/09/01 08:16:18;;;;;;;55.63;21.45;;;15.80;99.90;;;;;;4993246;28;20082;-72
2023/09/01 08:18:43;;;;;;;54.72;20.98;;;15.90;99.90;;;;;;4994102;28;20042;-73
2023/09/01 08:21:10;;;;;;;60.65;21.88;;;16.00;99.90;;;;;;4994976;28;20044;-73
2023/09/01 08:23:36;;;;;;;47.63;20.33;;;16.10;99.90;;;;;;4997429;28;20130;-73
2023/09/01 08:26:05;;;;;;;46.67;20.17;;;16.30;99.90;;;;;;4998396;28;20046;-73
2023/09/01 08:28:31;;;;;;;55.15;21.02;;;16.40;99.90;;;;;;4998033;28;20046;-73
2023/09/01 08:31:01;;;;;;;55.28;21.08;;;16.50;99.90;;;;;;4997246;28;20133;-73
2023/09/01 08:33:27;;;;;;;54.15;19.63;;;16.60;99.90;;;;;;4996963;28;20125;-74
2023/09/01 08:35:53;;;;;;;56.88;20.45;;;16.80;99.90;;;;;;4981019;28;20125;-74
2023/09/01 08:38:19;;;;;;;53.10;19.20;;;16.90;99.90;;;;;;4997594;28;20121;-73
2023/09/01 08:40:48;;;;;;;53.55;19.73;;;16.80;99.90;;;;;;4996692;28;20046;-73
2023/09/01 08:43:16;;;;;;;57.47;19.17;;;17.00;99.90;;;;;;4998211;28;20054;-72
2023/09/01 08:45:42;;;;;;;;;;;17.10;99.90;;;;;;4998374;28;20054;-73
2023/09/01 08:48:08;;;;;;;58.28;20.15;;;17.30;99.90;;;;;;4980765;28;20280;-72
2023/09/01 08:50:34;;;;;;;56.55;19.27;;;17.20;99.90;;;;;;4964461;28;20066;-73
2023/09/01 08:53:04;;;;;;;46.30;18.20;;;17.20;99.90;;;;;;4997851;28;20109;-71
2023/09/01 08:55:30;;;;;;;57.10;21.08;;;17.30;99.90;;;;;;4996816;28;20042;-72
2023/09/01 08:57:56;;;;;;;49.90;18.75;;;17.40;99.90;;;;;;4996714;28;20062;-73
2023/09/01 09:00:21;;;;;;;53.00;18.23;;;17.50;99.90;;;;;;4998047;28;20398;-72
2023/09/01 09:02:47;;;;;;;54.93;18.30;;;17.70;99.90;;;;;;4996358;28;20072;-73
2023/09/01 09:05:15;;;;;;;46.77;18.20;;;17.80;99.90;;;;;;4996218;28;20050;-73
2023/09/01 09:07:41;;;;;;;59.03;19.70;;;17.80;99.90;;;;;;4996112;28;20116;-73
2023/09/01 09:10:07;;;;;;;52.78;19.50;;;17.90;99.90;;;;;;4997449;28;20043;-72
2023/09/01 09:12:37;;;;;;;55.40;20.13;;;18.00;99.90;;;;;;4980263;28;20065;-73
2023/09/01 09:15:04;;;;;;;59.78;19.38;;;18.10;99.90;;;;;;4997463;28;20050;-72
2023/09/01 09:17:46;;;;;;;53.45;20.05;;;18.00;99.90;;;;;;4996399;28;20078;-73
2023/09/01 09:20:14;;;;;;;55.45;19.33;;;18.10;99.90;;;;;;4995935;28;20050;-73
2023/09/01 09:22:53;;;;;;;48.20;19.92;;;18.20;99.90;;;;;;4995586;28;20598;-72
2023/09/01 09:25:33;;;;;;;57.60;20.25;;;18.20;99.90;;;;;;4996937;28;20046;-73
2023/09/01 09:28:01;;;;;;;57.20;21.23;;;18.30;99.90;;;;;;4997119;28;20054;-73
2023/09/01 09:30:27;;;;;;;67.05;22.27;;;18.30;99.90;;;;;;4996913;28;20054;-73
2023/09/01 09:33:04;;;;;;;59.33;20.00;;;18.40;99.90;;;;;;4995366;28;20050;-70
2023/09/01 09:35:32;;;;;;;50.63;18.05;;;18.50;99.90;;;;;;4997082;28;20042;-71
2023/09/01 09:37:59;;;;;;;48.63;18.55;;;18.50;99.90;;;;;;4996574;28;20494;-72
2023/09/01 09:40:25;;;;;;;;;;;18.60;99.90;;;;;;4996106;28;20129;-70
2023/09/01 09:42:50;;;;;;;53.08;17.23;;;18.70;99.90;;;;;;4979473;28;19961;-72
2023/09/01 09:45:26;;;;;;;40.60;14.30;;;18.80;99.90;;;;;;4979490;28;20046;-71
2023/09/01 09:47:54;;;;;;;42.95;14.40;;;18.90;99.90;;;;;;4980021;28;20461;-68
2023/09/01 09:50:21;;;;;;;45.63;14.48;;;18.80;99.90;;;;;;4996602;28;20081;-70
2023/09/01 09:52:54;;;;;;;55.55;16.55;;;18.80;99.90;;;;;;4978966;28;20129;-70
2023/09/01 09:55:28;;;;;;;46.33;13.45;;;18.70;99.90;;;;;;4995259;28;20081;-71
2023/09/01 09:58:04;;;;;;;47.47;13.38;;;18.70;99.90;;;;;;4995107;28;20064;-71
2023/09/01 10:01:03;;;;;;;47.90;15.52;;;18.60;99.90;;;;;;4996888;28;20085;-71
2023/09/01 10:03:30;;;;;;;48.30;14.48;;;18.70;99.90;;;;;;4993805;28;20050;-73
2023/09/01 10:05:59;;;;;;;54.03;17.20;;;18.60;99.90;;;;;;4995453;28;20058;-71
2023/09/01 10:08:25;;;;;;;49.10;15.45;;;18.60;99.90;;;;;;4996335;28;20398;-72
2023/09/01 10:10:51;;;;;;;52.00;16.43;;;18.60;99.90;;;;;;4979129;28;20100;-70
2023/09/01 10:13:21;;;;;;;49.28;16.95;;;18.70;99.90;;;;;;4995305;28;20058;-73
2023/09/01 10:15:49;;;;;;;49.30;16.50;;;18.70;99.90;;;;;;4995569;28;20099;-71
2023/09/01 10:18:15;;;;;;;48.28;15.60;;;18.80;99.90;;;;;;4978678;28;20100;-71
2023/09/01 10:20:43;;;;;;;47.00;16.13;;;18.80;99.90;;;;;;4996192;28;20038;-73
2023/09/01 10:23:10;;;;;;;51.47;17.08;;;18.90;99.90;;;;;;4996062;28;20053;-72
2023/09/01 10:25:36;;;;;;;51.63;17.55;;;19.10;99.90;;;;;;4994469;28;20574;-71
2023/09/01 10:28:13;;;;;;;51.50;17.63;;;19.10;99.90;;;;;;4979226;28;20090;-72
2023/09/01 10:30:40;;;;;;;44.58;16.02;;;19.20;99.90;;;;;;4978698;28;20125;-72
2023/09/01 10:33:22;;;;;;;45.85;12.88;;;19.20;99.90;;;;;;4978600;28;20058;-70
2023/09/01 10:35:55;;;;;;;46.85;14.70;;;19.30;99.90;;;;;;4996242;28;20054;-72
2023/09/01 10:38:33;;;;;;;39.30;13.20;;;19.10;99.90;;;;;;4995953;28;20069;-71
2023/09/01 10:40:59;;;;;;;42.55;12.98;;;19.10;99.90;;;;;;4995125;28;20509;-72
2023/09/01 10:43:37;;;;;;;35.23;11.97;;;18.90;99.90;;;;;;4994560;28;20046;-70
2023/09/01 10:46:12;;;;;;;36.80;11.93;;;18.90;99.90;;;;;;4996178;28;20050;-70
2023/09/01 10:49:00;;;;;;;44.00;11.85;;;18.80;99.90;;;;;;4994258;28;20056;-72
2023/09/01 10:51:34;;;;;;;35.63;10.90;;;18.80;99.90;;;;;;4994392;28;20112;-71
2023/09/01 10:54:20;;;;;;;43.40;12.05;;;18.80;99.90;;;;;;4995891;28;20051;-72
2023/09/01 10:57:02;;;;;;;41.22;12.13;;;18.80;99.90;;;;;;4993779;28;20050;-71
2023/09/01 10:59:32;;;;;;;36.00;11.68;;;18.80;99.90;;;;;;4994816;28;20046;-70
2023/09/01 11:02:18;;;;;;;39.25;11.43;;;18.80;99.90;;;;;;4995228;28;20054;-69
2023/09/01 11:04:44;;;;;;;32.85;11.88;;;18.90;99.90;;;;;;4995095;28;20152;-71
2023/09/01 11:07:11;;;;;;;45.92;12.63;;;18.80;99.90;;;;;;4994646;28;20065;-71
2023/09/01 11:09:38;;;;;;;;;;;18.70;99.90;;;;;;4995035;28;20056;-71
2023/09/01 11:12:06;;;;;;;40.15;12.23;;;18.70;99.90;;;;;;4995146;28;19922;-72
2023/09/01 11:14:33;;;;;;;37.00;12.05;;;18.70;99.90;;;;;;4995302;28;20050;-72
2023/09/01 11:17:03;;;;;;;33.42;11.68;;;18.90;99.90;;;;;;4994018;28;20053;-72
2023/09/01 11:19:32;;;;;;;37.75;12.35;;;18.90;99.90;;;;;;4997238;28;20081;-72
2023/09/01 11:21:58;;;;;;;44.33;12.70;;;19.00;99.90;;;;;;4996254;28;20042;-71
2023/09/01 11:24:24;;;;;;;45.97;14.05;;;19.00;99.90;;;;;;4995187;28;20050;-72
2023/09/01 11:26:51;;;;;;;41.60;14.20;;;19.00;99.90;;;;;;4995211;28;20137;-72
2023/09/01 11:29:21;;;;;;;50.03;13.93;;;19.00;99.90;;;;;;4994929;28;20527;-73
2023/09/01 11:31:47;;;;;;;35.47;13.77;;;19.00;99.90;;;;;;4994286;28;20054;-71
2023/09/01 11:34:15;;;;;;;46.97;13.85;;;19.00;99.90;;;;;;4977270;28;20058;-72
2023/09/01 11:36:49;;;;;;;;;;;19.10;99.90;;;;;;4993721;28;20061;-71
2023/09/01 11:39:14;;;;;;;44.65;13.07;;;19.20;99.90;;;;;;4993770;28;20380;-70
2023/09/01 11:41:41;;;;;;;40.40;14.37;;;19.20;99.90;;;;;;4977535;28;20057;-70
2023/09/01 11:44:07;;;;;;;42.80;13.85;;;19.20;99.90;;;;;;4993461;28;20104;-72
2023/09/01 11:46:35;;;;;;;35.08;13.00;;;19.20;99.90;;;;;;4993450;28;20427;-71
2023/09/01 11:49:01;;;;;;;40.38;13.18;;;19.00;99.90;;;;;;4993212;28;20482;-71
2023/09/01 11:51:31;;;;;;;41.63;12.40;;;19.00;99.90;;;;;;4977982;28;20097;-69
2023/09/01 11:53:58;;;;;;;36.42;12.57;;;18.90;99.90;;;;;;4993924;28;20061;-71
2023/09/01 11:56:24;;;;;;;33.78;11.57;;;18.90;99.90;;;;;;4994155;28;20058;-71
2023/09/01 11:58:55;;;;;;;45.90;12.27;;;18.90;99.90;;;;;;4994114;28;20058;-71
2023/09/01 12:01:23;;;;;;;43.47;12.35;;;19.10;99.90;;;;;;4993067;28;20043;-71
2023/09/01 12:03:54;;;;;;;38.30;10.60;;;19.30;99.90;;;;;;4977504;28;20047;-70
2023/09/01 12:06:28;;;;;;;39.78;11.23;;;19.50;99.90;;;;;;4992992;28;20076;-71
2023/09/01 12:09:15;;;;;;;32.80;11.18;;;19.70;99.90;;;;;;4993982;28;20363;-70
2023/09/01 12:11:55;;;;;;;38.63;13.07;;;19.90;99.90;;;;;;4994147;28;20094;-72
2023/09/01 12:14:28;;;;;;;43.67;13.25;;;20.00;99.90;;;;;;4994178;28;20050;-72
2023/09/01 12:16:54;;;;;;;38.65;12.82;;;20.10;99.90;;;;;;4992957;28;20479;-71
2023/09/01 12:19:25;;;;;;;42.72;11.70;;;20.20;99.90;;;;;;4994053;28;20050;-72
2023/09/01 12:21:57;;;;;;;35.05;12.32;;;20.20;99.90;;;;;;4977289;28;20132;-72
2023/09/01 12:24:23;;;;;;;39.90;12.82;;;20.30;99.90;;;;;;4961620;28;20054;-71
2023/09/01 12:26:50;;;;;;;43.47;13.03;;;20.60;99.90;;;;;;4996206;28;20046;-71
2023/09/01 12:29:16;;;;;;;43.72;12.13;;;20.70;99.90;;;;;;4994148;28;20083;-73
2023/09/01 12:31:42;;;;;;;43.80;13.65;;;20.80;99.90;;;;;;4995316;28;20050;-70
2023/09/01 12:34:08;;;;;;;36.97;11.63;;;20.80;99.90;;;;;;4994420;28;20490;-72
2023/09/01 12:36:35;;;;;;;40.27;12.50;;;21.00;99.90;;;;;;4994154;28;20129;-72